Аэропорт: Кневичи. Владивосток

ICAO: UHWW

METAR:
2021-10-23 00:00:00
UHWW 230000Z 05001MPS 9999 NSC 03/M02 Q1026 R25L/0///70 NOSIG RMK QFE768
METAR:
2021-10-22 23:00:00
TAF UHWW 222300Z 2300/2324 33003G08MPS 9999 NSC BECMG 2307/2309 24003MPS SCT030